createdAt,value
2019-02-25T00:01:05.874Z,0
2019-02-25T00:02:05.887Z,0
2019-02-25T00:03:05.907Z,0
2019-02-25T00:04:05.914Z,0
2019-02-25T00:05:06.029Z,0
2019-02-25T00:06:05.940Z,0
2019-02-25T00:07:05.956Z,0
2019-02-25T00:08:05.970Z,0
2019-02-25T00:09:05.980Z,0
2019-02-25T00:10:20.672Z,0
2019-02-25T00:11:06.003Z,0
2019-02-25T00:12:06.018Z,0
2019-02-25T00:13:20.752Z,0
2019-02-25T00:14:06.050Z,0
2019-02-25T00:15:06.064Z,0
2019-02-25T00:16:06.072Z,0
2019-02-25T00:17:06.090Z,0
2019-02-25T00:18:06.101Z,0
2019-02-25T00:19:20.780Z,0
2019-02-25T00:20:06.127Z,0
2019-02-25T00:21:06.146Z,0
2019-02-25T00:22:06.151Z,0
2019-02-25T00:23:20.842Z,0
2019-02-25T00:24:20.842Z,0
2019-02-25T00:25:06.201Z,0
2019-02-25T00:26:20.870Z,0
2019-02-25T00:27:06.221Z,0
2019-02-25T00:28:06.242Z,0
2019-02-25T00:29:20.910Z,0
2019-02-25T00:30:06.273Z,0
2019-02-25T00:31:06.286Z,0
2019-02-25T00:32:06.287Z,0
2019-02-25T00:33:06.300Z,0
2019-02-25T00:34:06.312Z,0
2019-02-25T00:35:06.330Z,0
2019-02-25T00:36:06.340Z,0
2019-02-25T00:37:06.352Z,0
2019-02-25T00:38:06.369Z,0
2019-02-25T00:39:21.043Z,0
2019-02-25T00:41:06.416Z,0
2019-02-25T00:42:06.438Z,0
2019-02-25T00:43:06.439Z,0
2019-02-25T00:44:21.116Z,0
2019-02-25T00:45:06.468Z,0
2019-02-25T00:46:06.478Z,0
2019-02-25T00:47:06.492Z,0
2019-02-25T00:48:21.170Z,0
2019-02-25T00:49:06.530Z,0
2019-02-25T00:50:06.534Z,0
2019-02-25T00:51:06.547Z,0
2019-02-25T00:52:06.569Z,0
2019-02-25T00:54:06.580Z,0
2019-02-25T00:55:06.600Z,0
2019-02-25T00:56:06.607Z,0
2019-02-25T00:57:21.282Z,0
2019-02-25T00:58:06.643Z,0
2019-02-25T00:59:06.659Z,0
2019-02-25T01:00:06.706Z,0
2019-02-25T01:01:06.678Z,0
2019-02-25T01:02:06.689Z,0
2019-02-25T01:03:06.703Z,0
2019-02-25T01:04:06.712Z,0
2019-02-25T01:05:06.724Z,0
2019-02-25T01:06:06.744Z,0
2019-02-25T01:07:06.760Z,0
2019-02-25T01:08:07.779Z,0
2019-02-25T01:09:06.783Z,0
2019-02-25T01:10:21.213Z,0
2019-02-25T01:11:06.820Z,0
2019-02-25T01:12:06.821Z,0
2019-02-25T01:13:06.837Z,0
2019-02-25T01:14:06.845Z,0
2019-02-25T01:15:06.865Z,0
2019-02-25T01:16:21.535Z,0
2019-02-25T01:17:06.898Z,0
2019-02-25T01:18:07.250Z,0
2019-02-25T01:19:06.920Z,0
2019-02-25T01:20:06.936Z,0
2019-02-25T01:21:06.945Z,0
2019-02-25T01:22:06.955Z,0
2019-02-25T01:23:06.975Z,0
2019-02-25T01:24:06.988Z,0
2019-02-25T01:25:07.006Z,0
2019-02-25T01:26:07.007Z,0
2019-02-25T01:27:21.679Z,0
2019-02-25T01:28:07.032Z,0
2019-02-25T01:29:21.458Z,0
2019-02-25T01:30:07.157Z,0
2019-02-25T01:31:07.070Z,0
2019-02-25T01:32:21.750Z,0
2019-02-25T01:33:07.100Z,0
2019-02-25T01:34:07.111Z,0
2019-02-25T01:35:07.126Z,0
2019-02-25T01:36:07.137Z,0
2019-02-25T01:37:07.152Z,0
2019-02-25T01:39:07.191Z,0
2019-02-25T01:40:07.333Z,0
2019-02-25T01:41:07.198Z,0
2019-02-25T01:42:07.214Z,0
2019-02-25T01:43:07.232Z,0
2019-02-25T01:45:07.414Z,0
2019-02-25T01:46:07.266Z,0
2019-02-25T01:47:07.293Z,0
2019-02-25T01:48:21.953Z,0
2019-02-25T01:49:21.978Z,0
2019-02-25T01:50:07.399Z,0
2019-02-25T01:51:07.337Z,0
2019-02-25T01:52:07.348Z,0
2019-02-25T01:53:07.363Z,0
2019-02-25T01:54:07.379Z,0
2019-02-25T01:55:07.478Z,0
2019-02-25T01:56:07.403Z,0
2019-02-25T01:57:22.075Z,0
2019-02-25T01:58:07.435Z,0
2019-02-25T01:59:22.098Z,0
2019-02-25T02:00:07.471Z,0
2019-02-25T02:01:07.461Z,0
2019-02-25T02:02:07.474Z,0
2019-02-25T02:03:07.490Z,0
2019-02-25T02:04:22.163Z,0
2019-02-25T02:05:07.592Z,0
2019-02-25T02:06:07.540Z,0
2019-02-25T02:07:07.541Z,0
2019-02-25T02:08:22.221Z,0
2019-02-25T02:09:07.568Z,0
2019-02-25T02:11:07.612Z,0
2019-02-25T02:12:07.602Z,0
2019-02-25T02:13:16.240Z,0
2019-02-25T02:14:22.290Z,0
2019-02-25T02:16:07.662Z,0
2019-02-25T02:17:07.674Z,0
2019-02-25T02:18:07.784Z,0
2019-02-25T02:19:22.369Z,0
2019-02-25T02:20:07.709Z,0
2019-02-25T02:21:07.722Z,0
2019-02-25T02:22:07.741Z,0
2019-02-25T02:23:07.743Z,0
2019-02-25T02:24:07.761Z,0
2019-02-25T02:25:07.883Z,0
2019-02-25T02:26:07.779Z,0
2019-02-25T02:27:07.805Z,0
2019-02-25T02:28:07.814Z,0
2019-02-25T02:30:07.851Z,0
2019-02-25T02:31:07.869Z,0
2019-02-25T02:33:07.885Z,0
2019-02-25T02:34:07.898Z,0
2019-02-25T02:35:07.929Z,0
2019-02-25T02:36:22.584Z,0
2019-02-25T02:37:07.957Z,0
2019-02-25T02:38:07.942Z,0
2019-02-25T02:39:07.951Z,0
2019-02-25T02:40:07.965Z,0
2019-02-25T02:41:07.970Z,0
2019-02-25T02:42:08.086Z,0
2019-02-25T02:45:08.037Z,0
2019-02-25T02:46:08.038Z,0
2019-02-25T02:47:08.127Z,0
2019-02-25T02:48:08.075Z,0
2019-02-25T02:49:08.083Z,0
2019-02-25T02:50:08.095Z,0
2019-02-25T02:51:22.780Z,0
2019-02-25T02:52:08.119Z,0
2019-02-25T02:53:08.143Z,0
2019-02-25T02:54:08.152Z,0
2019-02-25T02:55:08.169Z,0
2019-02-25T02:56:08.171Z,0
2019-02-25T02:57:08.180Z,0
2019-02-25T02:58:22.616Z,0
2019-02-25T02:59:08.207Z,0
2019-02-25T03:00:08.225Z,0
2019-02-25T03:01:08.234Z,0
2019-02-25T03:02:08.241Z,0
2019-02-25T03:03:08.267Z,0
2019-02-25T03:04:08.271Z,0
2019-02-25T03:05:08.285Z,0
2019-02-25T03:07:23.038Z,0
2019-02-25T03:08:22.987Z,0
2019-02-25T03:10:08.353Z,0
2019-02-25T03:11:08.355Z,0
2019-02-25T03:12:08.380Z,0
2019-02-25T03:13:08.387Z,0
2019-02-25T03:14:23.060Z,0
2019-02-25T03:16:08.426Z,0
2019-02-25T03:17:23.094Z,0
2019-02-25T03:18:08.507Z,0
2019-02-25T03:19:23.127Z,0
2019-02-25T03:20:23.146Z,0
2019-02-25T03:21:08.618Z,0
2019-02-25T03:22:08.499Z,0
2019-02-25T03:23:23.176Z,0
2019-02-25T03:24:08.526Z,0
2019-02-25T03:25:08.539Z,0
2019-02-25T03:26:08.562Z,0
2019-02-25T03:27:08.561Z,0
2019-02-25T03:28:08.580Z,0
2019-02-25T03:29:08.588Z,0
2019-02-25T03:30:08.617Z,0
2019-02-25T03:31:08.488Z,0
2019-02-25T03:32:08.674Z,0
2019-02-25T03:33:08.693Z,0
2019-02-25T03:34:08.527Z,0
2019-02-25T03:35:08.663Z,0
2019-02-25T03:36:23.335Z,0
2019-02-25T03:37:08.691Z,0
2019-02-25T03:38:08.709Z,0
2019-02-25T03:39:23.374Z,0
2019-02-25T03:40:08.743Z,0
2019-02-25T03:41:08.849Z,0
2019-02-25T03:42:08.508Z,0
2019-02-25T03:44:08.787Z,0
2019-02-25T03:45:08.801Z,0
2019-02-25T03:46:08.816Z,0
2019-02-25T03:47:08.843Z,0
2019-02-25T03:48:23.497Z,0
2019-02-25T03:49:23.505Z,0
2019-02-25T03:50:08.857Z,0
2019-02-25T03:51:10.400Z,0
2019-02-25T03:52:08.883Z,0
2019-02-25T03:53:08.651Z,0
2019-02-25T03:54:23.564Z,0
2019-02-25T03:55:23.595Z,0
2019-02-25T03:56:08.931Z,0
2019-02-25T03:57:08.969Z,0
2019-02-25T03:58:08.956Z,0
2019-02-25T03:59:09.019Z,0
2019-02-25T04:00:23.644Z,0
2019-02-25T04:01:08.991Z,0
2019-02-25T04:02:09.006Z,0
2019-02-25T04:03:09.017Z,0
2019-02-25T04:04:09.032Z,0
2019-02-25T04:06:09.067Z,0
2019-02-25T04:08:08.864Z,0
2019-02-25T04:09:09.091Z,0
2019-02-25T04:10:09.109Z,0
2019-02-25T04:12:09.142Z,0
2019-02-25T04:13:09.146Z,0
2019-02-25T04:14:09.155Z,0
2019-02-25T04:15:09.164Z,0
2019-02-25T04:16:09.198Z,0
2019-02-25T04:17:09.196Z,0
2019-02-25T04:18:09.208Z,0
2019-02-25T04:19:09.230Z,0
2019-02-25T04:20:09.305Z,0
2019-02-25T04:21:09.247Z,0
2019-02-25T04:22:09.253Z,0
2019-02-25T04:23:09.097Z,0
2019-02-25T04:24:09.283Z,0
2019-02-25T04:25:09.365Z,0
2019-02-25T04:26:23.970Z,0
2019-02-25T04:27:09.322Z,0
2019-02-25T04:28:23.996Z,0
2019-02-25T04:29:09.350Z,0
2019-02-25T04:31:09.380Z,0
2019-02-25T04:32:09.383Z,0
2019-02-25T04:33:24.130Z,0
2019-02-25T04:34:09.400Z,0
2019-02-25T04:35:09.416Z,0
2019-02-25T04:37:25.208Z,0
2019-02-25T04:38:10.273Z,0
2019-02-25T04:39:09.469Z,0
2019-02-25T04:40:09.585Z,0
2019-02-25T04:41:09.490Z,0
2019-02-25T04:42:24.166Z,0
2019-02-25T04:43:09.539Z,0
2019-02-25T04:44:24.193Z,0
2019-02-25T04:45:09.637Z,0
2019-02-25T04:46:09.596Z,0
2019-02-25T04:47:09.568Z,0
2019-02-25T04:48:09.579Z,0
2019-02-25T04:49:09.622Z,0
2019-02-25T04:50:09.637Z,0
2019-02-25T04:51:09.368Z,0
2019-02-25T04:52:09.625Z,0
2019-02-25T04:53:09.634Z,0
2019-02-25T04:54:24.339Z,0
2019-02-25T04:55:09.678Z,0
2019-02-25T04:56:09.695Z,0
2019-02-25T04:57:09.692Z,0
2019-02-25T04:58:24.371Z,0
2019-02-25T04:59:09.762Z,0
2019-02-25T05:00:09.737Z,0
2019-02-25T05:01:09.733Z,0
2019-02-25T05:02:09.761Z,0
2019-02-25T05:03:09.764Z,0
2019-02-25T05:04:09.797Z,0
2019-02-25T05:05:09.793Z,0
2019-02-25T05:06:09.797Z,0
2019-02-25T05:07:09.814Z,0
2019-02-25T05:08:09.825Z,0
2019-02-25T05:09:09.852Z,0
2019-02-25T05:11:25.748Z,0
2019-02-25T05:12:09.875Z,0
2019-02-25T05:13:09.885Z,0
2019-02-25T05:14:24.572Z,0
2019-02-25T05:16:09.957Z,0
2019-02-25T05:18:24.607Z,0
2019-02-25T05:19:09.974Z,0
2019-02-25T05:20:09.967Z,0
2019-02-25T05:21:09.977Z,0
2019-02-25T05:22:09.998Z,0
2019-02-25T05:23:10.026Z,4
2019-02-25T05:24:10.027Z,4
2019-02-25T05:25:24.689Z,0
2019-02-25T05:26:10.061Z,0
2019-02-25T05:28:10.068Z,0
2019-02-25T05:29:24.497Z,4
2019-02-25T05:30:24.755Z,4
2019-02-25T05:31:10.109Z,4
2019-02-25T05:32:10.123Z,4
2019-02-25T05:33:10.124Z,8
2019-02-25T05:34:10.153Z,8
2019-02-25T05:35:10.146Z,8
2019-02-25T05:36:10.173Z,8
2019-02-25T05:37:10.177Z,12
2019-02-25T05:39:10.198Z,20
2019-02-25T05:40:10.216Z,24
2019-02-25T05:41:10.221Z,24
2019-02-25T05:42:10.340Z,28
2019-02-25T05:43:10.247Z,32
2019-02-25T05:44:10.960Z,40
2019-02-25T05:45:24.941Z,44
2019-02-25T05:46:10.308Z,52
2019-02-25T05:47:10.298Z,60
2019-02-25T05:48:10.317Z,68
2019-02-25T05:50:10.352Z,92
2019-02-25T05:51:10.335Z,104
2019-02-25T05:52:10.358Z,120
2019-02-25T05:53:10.387Z,136
2019-02-25T05:54:10.407Z,156
2019-02-25T05:55:10.395Z,176
2019-02-25T05:56:10.406Z,196
2019-02-25T05:57:10.412Z,212
2019-02-25T05:59:10.444Z,260
2019-02-25T06:00:10.448Z,284
2019-02-25T06:01:25.119Z,324
2019-02-25T06:02:12.623Z,352
2019-02-25T06:03:10.481Z,392
2019-02-25T06:04:10.494Z,436
2019-02-25T06:06:10.519Z,548
2019-02-25T06:07:25.203Z,624
2019-02-25T06:08:10.545Z,668
2019-02-25T06:09:10.551Z,732
2019-02-25T06:11:10.595Z,864
2019-02-25T06:12:10.591Z,940
2019-02-25T06:13:10.597Z,1016
2019-02-25T06:14:25.286Z,1112
2019-02-25T06:15:10.631Z,1176
2019-02-25T06:16:10.654Z,1260
2019-02-25T06:17:25.316Z,1376
2019-02-25T06:18:10.662Z,1448
2019-02-25T06:19:10.690Z,1544
2019-02-25T06:20:10.684Z,1648
2019-02-25T06:21:10.698Z,1756
2019-02-25T06:22:10.467Z,1872
2019-02-25T06:24:10.741Z,2132
2019-02-25T06:25:10.778Z,2276
2019-02-25T06:26:10.772Z,2436
2019-02-25T06:27:33.022Z,2716
2019-02-25T06:28:10.795Z,2884
2019-02-25T06:29:10.800Z,3268
2019-02-25T06:32:10.838Z,4364
2019-02-25T06:33:25.605Z,5360
2019-02-25T06:34:10.858Z,6184
2019-02-25T06:35:10.870Z,6836
2019-02-25T06:36:10.886Z,7016
2019-02-25T06:37:10.641Z,7252
2019-02-25T06:38:10.964Z,7060
2019-02-25T06:39:10.918Z,6616
2019-02-25T06:40:25.617Z,6560
2019-02-25T06:41:10.942Z,6756
2019-02-25T06:42:10.955Z,7008
2019-02-25T06:43:10.972Z,7204
2019-02-25T06:44:11.004Z,7504
2019-02-25T06:46:11.053Z,8812
2019-02-25T06:47:11.019Z,9456
2019-02-25T06:48:11.059Z,8252
2019-02-25T06:49:25.710Z,8172
2019-02-25T06:50:10.812Z,9336
2019-02-25T06:51:11.083Z,11144
2019-02-25T06:52:11.082Z,13376
2019-02-25T06:54:11.113Z,16832
2019-02-25T06:56:11.144Z,17568
2019-02-25T06:57:11.154Z,18624
2019-02-25T06:58:11.180Z,19488
2019-02-25T06:59:11.182Z,19072
2019-02-25T07:00:11.199Z,19232
2019-02-25T07:01:25.873Z,20544
2019-02-25T07:02:11.296Z,21280
2019-02-25T07:03:11.011Z,22432
2019-02-25T07:04:25.919Z,24544
2019-02-25T07:05:11.277Z,24288
2019-02-25T07:06:11.293Z,23712
2019-02-25T07:07:11.304Z,24512
2019-02-25T07:08:11.329Z,24864
2019-02-25T07:09:26.004Z,26048
2019-02-25T07:10:11.350Z,25792
2019-02-25T07:12:11.385Z,25600
2019-02-25T07:13:11.406Z,25920
2019-02-25T07:14:11.420Z,27040
2019-02-25T07:17:11.477Z,28672
2019-02-25T07:18:11.678Z,27424
2019-02-25T07:19:11.519Z,27648
2019-02-25T07:20:11.525Z,28096
2019-02-25T07:21:11.548Z,29024
2019-02-25T07:22:13.107Z,28256
2019-02-25T07:23:11.585Z,27648
2019-02-25T07:24:11.699Z,27616
2019-02-25T07:25:11.623Z,27392
2019-02-25T07:26:11.644Z,29280
2019-02-25T07:27:11.411Z,29056
2019-02-25T07:28:11.675Z,28576
2019-02-25T07:29:26.358Z,29440
2019-02-25T07:30:11.710Z,30880
2019-02-25T07:31:11.728Z,30048
2019-02-25T07:33:11.769Z,35424
2019-02-25T07:34:11.790Z,36480
2019-02-25T07:35:11.818Z,35584
2019-02-25T07:36:41.155Z,36032
2019-02-25T07:37:11.842Z,36864
2019-02-25T07:38:11.872Z,38144
2019-02-25T07:39:11.879Z,37408
2019-02-25T07:40:11.896Z,37664
2019-02-25T07:41:11.911Z,37952
2019-02-25T07:42:11.937Z,38944
2019-02-25T07:43:11.961Z,39968
2019-02-25T07:44:11.973Z,38144
2019-02-25T07:45:11.998Z,38016
2019-02-25T07:46:12.018Z,36320
2019-02-25T07:47:26.693Z,39296
2019-02-25T07:48:12.050Z,41440
2019-02-25T07:49:12.093Z,41984
2019-02-25T07:50:12.091Z,41920
2019-02-25T07:51:12.115Z,41152
2019-02-25T07:52:26.790Z,39808
2019-02-25T07:53:26.790Z,38368
2019-02-25T07:54:14.028Z,36864
2019-02-25T07:55:26.855Z,37344
2019-02-25T07:56:12.213Z,31552
2019-02-25T07:57:12.232Z,22304
2019-02-25T07:58:12.297Z,19200
2019-02-25T07:59:12.269Z,18976
2019-02-25T08:00:12.291Z,18976
2019-02-25T08:01:12.315Z,19008
2019-02-25T08:02:12.326Z,17600
2019-02-25T08:05:27.052Z,17472
2019-02-25T08:06:27.079Z,17600
2019-02-25T08:07:12.423Z,17248
2019-02-25T08:08:27.109Z,17280
2019-02-25T08:10:12.497Z,17152
2019-02-25T08:11:12.503Z,17568
2019-02-25T08:12:12.538Z,17280
2019-02-25T08:13:12.555Z,16864
2019-02-25T08:14:12.577Z,18560
2019-02-25T08:15:13.915Z,21696
2019-02-25T08:16:12.603Z,22112
2019-02-25T08:17:27.291Z,23520
2019-02-25T08:18:12.650Z,25056
2019-02-25T08:19:12.665Z,24864
2019-02-25T08:20:12.691Z,27072
2019-02-25T08:21:12.704Z,29664
2019-02-25T08:22:12.727Z,32672
2019-02-25T08:23:12.742Z,34240
2019-02-25T08:24:35.440Z,33888
2019-02-25T08:25:12.885Z,32160
2019-02-25T08:26:27.475Z,33792
2019-02-25T08:27:12.832Z,34784
2019-02-25T08:28:12.859Z,31968
2019-02-25T08:29:12.868Z,21536
2019-02-25T08:30:12.887Z,31968
2019-02-25T08:31:14.082Z,28800
2019-02-25T08:32:27.587Z,34688
2019-02-25T08:33:12.944Z,34432
2019-02-25T08:34:27.624Z,29792
2019-02-25T08:36:12.758Z,27680
2019-02-25T08:37:13.020Z,31008
2019-02-25T08:38:13.049Z,30272
2019-02-25T08:39:27.726Z,30784
2019-02-25T08:40:14.076Z,30880
2019-02-25T08:41:13.105Z,30560
2019-02-25T08:42:13.123Z,28256
2019-02-25T08:43:13.145Z,24000
2019-02-25T08:44:27.829Z,27776
2019-02-25T08:45:13.193Z,28000
2019-02-25T08:46:13.209Z,27360
2019-02-25T08:47:13.235Z,27200
2019-02-25T08:48:13.241Z,27808
2019-02-25T08:49:13.279Z,28800
2019-02-25T08:50:13.281Z,28576
2019-02-25T08:51:13.309Z,29376
2019-02-25T08:52:13.323Z,30656
2019-02-25T08:53:13.352Z,28448
2019-02-25T08:55:13.383Z,27008
2019-02-25T08:56:13.410Z,27296
2019-02-25T08:57:13.418Z,23808
2019-02-25T08:58:13.440Z,25696
2019-02-25T08:59:13.492Z,22048
2019-02-25T09:00:13.480Z,24800
2019-02-25T09:01:15.355Z,23808
2019-02-25T09:02:28.184Z,27104
2019-02-25T09:03:13.539Z,27840
2019-02-25T09:04:28.224Z,29056
2019-02-25T09:05:13.583Z,29408
2019-02-25T09:06:13.791Z,22016
2019-02-25T09:07:13.625Z,23488
2019-02-25T09:08:13.648Z,23968
2019-02-25T09:09:13.660Z,23616
2019-02-25T09:10:15.881Z,24288
2019-02-25T09:11:28.363Z,26144
2019-02-25T09:12:13.724Z,28480
2019-02-25T09:13:13.743Z,28672
2019-02-25T09:14:13.761Z,28352
2019-02-25T09:15:28.452Z,27840
2019-02-25T09:16:13.801Z,28160
2019-02-25T09:17:15.920Z,27424
2019-02-25T09:18:13.841Z,29024
2019-02-25T09:19:28.527Z,28288
2019-02-25T09:20:13.886Z,28672
2019-02-25T09:21:31.936Z,29120
2019-02-25T09:23:13.960Z,27552
2019-02-25T09:25:13.992Z,28224
2019-02-25T09:26:14.359Z,27552
2019-02-25T09:27:28.691Z,26912
2019-02-25T09:28:14.049Z,26848
2019-02-25T09:29:14.073Z,27232
2019-02-25T09:30:28.758Z,24992
2019-02-25T09:31:28.784Z,24896
2019-02-25T09:32:14.129Z,24864
2019-02-25T09:33:14.161Z,23200
2019-02-25T09:34:14.227Z,21952
2019-02-25T09:35:13.956Z,22976
2019-02-25T09:36:14.213Z,22496
2019-02-25T09:37:13.983Z,21856
2019-02-25T09:38:14.254Z,21120
2019-02-25T09:39:14.280Z,20672
2019-02-25T09:40:14.294Z,21312
2019-02-25T09:41:14.333Z,20832
2019-02-25T09:42:14.333Z,20320
2019-02-25T09:43:29.019Z,19904
2019-02-25T09:44:14.377Z,20192
2019-02-25T09:45:14.500Z,18528
2019-02-25T09:46:14.426Z,19296
2019-02-25T09:47:14.439Z,19488
2019-02-25T09:48:14.457Z,18880
2019-02-25T09:49:14.490Z,18592
2019-02-25T09:50:14.503Z,17888
2019-02-25T09:51:16.117Z,18016
2019-02-25T09:52:14.545Z,18016
2019-02-25T09:56:14.733Z,17600
2019-02-25T09:59:29.355Z,17664
2019-02-25T10:00:14.712Z,17120
2019-02-25T10:01:14.732Z,17280
2019-02-25T10:02:14.751Z,17088
2019-02-25T10:03:14.770Z,16928
2019-02-25T10:04:15.977Z,16544
2019-02-25T10:05:15.819Z,16608
2019-02-25T10:06:15.446Z,15632
2019-02-25T10:07:14.960Z,15564
2019-02-25T10:09:14.904Z,15152
2019-02-25T10:10:14.927Z,15228
2019-02-25T10:11:29.603Z,15148
2019-02-25T10:12:29.384Z,14824
2019-02-25T10:13:15.696Z,14700
2019-02-25T10:14:29.768Z,14600
2019-02-25T10:15:15.027Z,14700
2019-02-25T10:16:15.057Z,12748
2019-02-25T10:17:23.406Z,13504
2019-02-25T10:18:15.142Z,13300
2019-02-25T10:19:15.108Z,13860
2019-02-25T10:20:29.798Z,13000
2019-02-25T10:21:15.148Z,12040
2019-02-25T10:22:14.930Z,11180
2019-02-25T10:23:15.208Z,11884
2019-02-25T10:24:29.876Z,10824
2019-02-25T10:25:15.249Z,10584
2019-02-25T10:26:15.287Z,9820
2019-02-25T10:27:15.348Z,8836
2019-02-25T10:28:15.298Z,8712
2019-02-25T10:29:15.430Z,10040
2019-02-25T10:30:15.441Z,11456
2019-02-25T10:31:19.626Z,10528
2019-02-25T10:32:15.381Z,12500
2019-02-25T10:33:15.409Z,12748
2019-02-25T10:34:15.425Z,10952
2019-02-25T10:35:16.542Z,11624
2019-02-25T10:36:15.485Z,11668
2019-02-25T10:37:19.607Z,11168
2019-02-25T10:38:15.513Z,10676
2019-02-25T10:39:22.226Z,10212
2019-02-25T10:40:22.145Z,9896
2019-02-25T10:41:30.308Z,9448
2019-02-25T10:42:31.496Z,9100
2019-02-25T10:43:15.603Z,8840
2019-02-25T10:44:15.772Z,8596
2019-02-25T10:45:18.335Z,8352
2019-02-25T10:46:30.332Z,8064
2019-02-25T10:47:21.744Z,7876
2019-02-25T10:48:19.417Z,7604
2019-02-25T10:49:18.853Z,7460
2019-02-25T10:50:15.743Z,7340
2019-02-25T10:52:19.877Z,6468
2019-02-25T10:53:22.061Z,6812
2019-02-25T10:54:19.411Z,6900
2019-02-25T10:55:15.844Z,6784
2019-02-25T10:56:19.234Z,6684
2019-02-25T10:57:31.424Z,6016
2019-02-25T10:58:34.145Z,6452
2019-02-25T10:59:34.435Z,6376
2019-02-25T11:00:18.681Z,6340
2019-02-25T11:01:27.106Z,6232
2019-02-25T11:02:30.648Z,6044
2019-02-25T11:03:22.003Z,5816
2019-02-25T11:04:19.443Z,5868
2019-02-25T11:05:16.049Z,5808
2019-02-25T11:06:16.062Z,5844
2019-02-25T11:07:16.862Z,5896
2019-02-25T11:08:18.724Z,5612
2019-02-25T11:09:20.542Z,5504
2019-02-25T11:10:22.254Z,5944
2019-02-25T11:11:16.780Z,5932
2019-02-25T11:12:32.892Z,5892
2019-02-25T11:13:16.201Z,5912
2019-02-25T11:15:20.603Z,5836
2019-02-25T11:16:22.839Z,5720
2019-02-25T11:17:20.241Z,5720
2019-02-25T11:18:33.117Z,5692
2019-02-25T11:19:16.320Z,5652
2019-02-25T11:20:16.361Z,5624
2019-02-25T11:21:32.902Z,5568
2019-02-25T11:22:20.956Z,5460
2019-02-25T11:23:36.350Z,5396
2019-02-25T11:24:19.001Z,5476
2019-02-25T11:26:16.648Z,5428
2019-02-25T11:27:16.493Z,5384
2019-02-25T11:28:31.834Z,5372
2019-02-25T11:29:21.092Z,5364
2019-02-25T11:30:24.068Z,5348
2019-02-25T11:31:22.639Z,5348
2019-02-25T11:32:17.269Z,5360
2019-02-25T11:33:16.598Z,5372
2019-02-25T11:34:34.102Z,5384
2019-02-25T11:35:18.415Z,5352
2019-02-25T11:36:24.265Z,5352
2019-02-25T11:37:31.347Z,5348
2019-02-25T11:38:16.703Z,5308
2019-02-25T11:39:16.857Z,5324
2019-02-25T11:40:16.740Z,5316
2019-02-25T11:41:18.475Z,5328
2019-02-25T11:43:36.056Z,5272
2019-02-25T11:44:18.773Z,5300
2019-02-25T11:45:16.833Z,5296
2019-02-25T11:46:16.860Z,5292
2019-02-25T11:47:16.879Z,5284
2019-02-25T11:49:31.582Z,5308
2019-02-25T11:50:16.949Z,5304
2019-02-25T11:51:16.967Z,5276
2019-02-25T11:52:16.993Z,5296
2019-02-25T11:53:17.001Z,5268
2019-02-25T11:54:17.024Z,5240
2019-02-25T11:55:17.135Z,5256
2019-02-25T11:56:17.055Z,5236
2019-02-25T11:57:17.083Z,5268
2019-02-25T11:58:17.094Z,5232
2019-02-25T11:59:17.128Z,5248
2019-02-25T12:00:31.802Z,5276
2019-02-25T12:01:17.166Z,5292
2019-02-25T12:03:17.189Z,5264
2019-02-25T12:04:17.223Z,5256
2019-02-25T12:05:17.232Z,5284
2019-02-25T12:06:17.255Z,5288
2019-02-25T12:07:17.025Z,5300
2019-02-25T12:08:17.298Z,5304
2019-02-25T12:09:17.308Z,5316
2019-02-25T12:10:17.331Z,5308
2019-02-25T12:11:17.400Z,5348
2019-02-25T12:12:17.366Z,5360
2019-02-25T12:13:17.388Z,5336
2019-02-25T12:14:17.412Z,5336
2019-02-25T12:16:32.116Z,5360
2019-02-25T12:17:17.467Z,5388
2019-02-25T12:18:17.488Z,5408
2019-02-25T12:19:25.020Z,5432
2019-02-25T12:20:17.531Z,5452
2019-02-25T12:21:32.212Z,5464
2019-02-25T12:22:17.568Z,5468
2019-02-25T12:23:17.597Z,5440
2019-02-25T12:24:17.609Z,5460
2019-02-25T12:25:17.628Z,5456
2019-02-25T12:26:17.647Z,5424
2019-02-25T12:27:19.065Z,5484
2019-02-25T12:28:17.687Z,5500
2019-02-25T12:29:18.324Z,5448
2019-02-25T12:30:17.726Z,5456
2019-02-25T12:31:32.409Z,5512
2019-02-25T12:32:32.429Z,5524
2019-02-25T12:33:32.450Z,5528
2019-02-25T12:34:17.875Z,5568
2019-02-25T12:35:32.488Z,5604
2019-02-25T12:36:33.255Z,5564
2019-02-25T12:37:32.536Z,5584
2019-02-25T12:38:17.896Z,5668
2019-02-25T12:39:17.905Z,5728
2019-02-25T12:40:17.925Z,5820
2019-02-25T12:41:17.952Z,5832
2019-02-25T12:42:17.964Z,5808
2019-02-25T12:43:18.096Z,5824
2019-02-25T12:44:18.006Z,5832
2019-02-25T12:45:18.035Z,5848
2019-02-25T12:46:18.043Z,5880
2019-02-25T12:47:18.076Z,5888
2019-02-25T12:48:18.087Z,5876
2019-02-25T12:49:18.107Z,5864
2019-02-25T12:51:18.150Z,5816
2019-02-25T12:52:18.265Z,5732
2019-02-25T12:53:32.852Z,5680
2019-02-25T12:54:18.224Z,5696
2019-02-25T12:55:18.243Z,5568
2019-02-25T12:56:18.249Z,5380
2019-02-25T12:57:18.277Z,5176
2019-02-25T12:58:32.954Z,5132
2019-02-25T12:59:18.308Z,4864
2019-02-25T13:00:18.331Z,5072
2019-02-25T13:01:18.346Z,5288
2019-02-25T13:02:18.377Z,5376
2019-02-25T13:03:18.405Z,5344
2019-02-25T13:04:18.441Z,5308
2019-02-25T13:05:18.312Z,5224
2019-02-25T13:06:18.452Z,5212
2019-02-25T13:07:18.476Z,5264
2019-02-25T13:08:18.499Z,5208
2019-02-25T13:09:33.179Z,5164
2019-02-25T13:10:18.290Z,5140
2019-02-25T13:11:18.579Z,5104
2019-02-25T13:12:18.579Z,5076
2019-02-25T13:13:18.607Z,5116
2019-02-25T13:14:18.616Z,5116
2019-02-25T13:17:20.529Z,4912
2019-02-25T13:17:30.433Z,4924
2019-02-25T13:18:30.465Z,5044
2019-02-25T13:19:45.138Z,5124
2019-02-25T13:20:30.499Z,5124
2019-02-25T13:21:30.517Z,5000
2019-02-25T13:22:30.557Z,5180
2019-02-25T13:23:30.601Z,5168
2019-02-25T13:24:45.245Z,5184
2019-02-25T13:25:30.624Z,5116
2019-02-25T13:26:36.582Z,4984
2019-02-25T13:27:30.687Z,5192
2019-02-25T13:29:30.729Z,5128
2019-02-25T13:30:30.746Z,5108
2019-02-25T13:31:30.827Z,5148
2019-02-25T13:32:30.780Z,5140
2019-02-25T13:33:31.330Z,5124
2019-02-25T13:34:30.810Z,5140
2019-02-25T13:36:45.513Z,5092
2019-02-25T13:37:30.885Z,5052
2019-02-25T13:38:30.916Z,4916
2019-02-25T13:39:30.932Z,4996
2019-02-25T13:40:31.328Z,4988
2019-02-25T13:41:31.136Z,5008
2019-02-25T13:42:30.989Z,5024
2019-02-25T13:43:32.398Z,5024
2019-02-25T13:44:31.096Z,5028
2019-02-25T13:45:31.083Z,4956
2019-02-25T13:46:45.758Z,4972
2019-02-25T13:47:45.733Z,4956
2019-02-25T13:48:31.157Z,4972
2019-02-25T13:49:45.796Z,4996
2019-02-25T13:51:31.184Z,4916
2019-02-25T13:52:31.207Z,4892
2019-02-25T13:53:31.335Z,4888
2019-02-25T13:54:31.860Z,4884
2019-02-25T13:55:31.263Z,4820
2019-02-25T13:56:31.300Z,4788
2019-02-25T13:57:31.322Z,4792
2019-02-25T13:58:31.320Z,4724
2019-02-25T13:59:31.352Z,4720
2019-02-25T14:00:31.504Z,4712
2019-02-25T14:01:33.722Z,4680
2019-02-25T14:02:31.701Z,4668
2019-02-25T14:03:46.413Z,4676
2019-02-25T14:04:31.430Z,4672
2019-02-25T14:05:31.504Z,4664
2019-02-25T14:06:33.329Z,4696
2019-02-25T14:07:31.485Z,4704
2019-02-25T14:08:31.502Z,4736
2019-02-25T14:09:31.889Z,4668
2019-02-25T14:10:31.553Z,4724
2019-02-25T14:11:31.596Z,4768
2019-02-25T14:12:31.597Z,4796
2019-02-25T14:13:31.624Z,4728
2019-02-25T14:14:31.648Z,4684
2019-02-25T14:15:31.671Z,4652
2019-02-25T14:16:31.669Z,4636
2019-02-25T14:17:33.899Z,4644
2019-02-25T14:19:46.902Z,4576
2019-02-25T14:20:31.765Z,4564
2019-02-25T14:21:46.180Z,4716
2019-02-25T14:22:31.798Z,4740
2019-02-25T14:23:31.812Z,4784
2019-02-25T14:24:31.957Z,4792
2019-02-25T14:27:34.391Z,4724
2019-02-25T14:28:35.049Z,4692
2019-02-25T14:29:33.761Z,4728
2019-02-25T14:30:35.438Z,4636
2019-02-25T14:31:34.703Z,4776
2019-02-25T14:32:34.748Z,4732
2019-02-25T14:33:35.314Z,4720
2019-02-25T14:34:32.049Z,4812
2019-02-25T14:35:46.954Z,4852
2019-02-25T14:36:33.109Z,4832
2019-02-25T14:37:46.770Z,4824
2019-02-25T14:38:39.569Z,4852
2019-02-25T14:39:40.742Z,4824
2019-02-25T14:40:43.987Z,4820
2019-02-25T14:41:32.688Z,4808
2019-02-25T14:42:38.885Z,4828
2019-02-25T14:43:45.529Z,4820
2019-02-25T14:44:45.867Z,4780
2019-02-25T14:45:41.369Z,4800
2019-02-25T14:46:34.050Z,4700
2019-02-25T14:47:46.859Z,4804
2019-02-25T14:48:37.714Z,4756
2019-02-25T14:49:46.995Z,4732
2019-02-25T14:50:47.023Z,4644
2019-02-25T14:51:32.426Z,4700